Accueil
METAR-TAF:

METAR-TAF

Aéroports :

Tarawa, Kiribati

Aéroport international de Bonriki

latitude: 01-21N, longitude: 172-55E, altitude: 2 m

Observation

Le bulletin a été fait il y a 32 minutes, à 18:00 UTC
Vent 8 kt de est/nord-est
Température 27°C
Humidité 89%
Pression 1008 hPa
Visibilité 10 km ou plus
Nuages épars à une hauteur de 1800 ft, Cumulus congestus.

METAR: NGTA 231800Z 07008KT 9999 SCT018TCU 27/25 Q1008

Heure: 08:32 (18:32 UTC)

Prévision

Le bulletin a été fait il y a 1 heure et 25 minutes, à 17:07 UTC
Prévision valable du 23 à 18 UTC au 24 à 18 UTC
Vent 10 kt de est
Visibilité 10 km ou plus
Nuages épars à une hauteur de 1800 ft
Nuages épars à une hauteur de 4000 ft

TAF: NGTA 231707Z 2318/2418 08010KT 9999 SCT018 SCT040

Observations et prévisions météorologiques de plus de 4000 aéroports (messages METAR et TAF).

Les stations disponibles sont représentées par des disques jaunes et rouges sur la carte.

Passer la souris dessus pour voir le nom de la station.

Cliquer dessus pour voir les observations et prévisions météorologiques.

Pour changer de carte: cliquez sur les boutons verts avec une croix noire pour zoomer, sur le bouton vert avec un tiret pour effectuer un zoom arrière, ou sur les flèches vertes pour les cartes adjacentes.


METAR-TAF: